Time;durP1;ratioP1;P1;durP2;ratioP2;P2;SDS_P1;SDS_P2;PMS_P1;PMS_P2;Temp;Humidity;BMP_temperature;BMP_pressure;BME280_temperature;BME280_humidity;BME280_pressure;Samples;Min_cycle;Max_cycle;Signal;HPM_P1;HPM_P2
2022/10/31 00:00:16;;;;;;;17.20;4.90;;;;;;;15.03;79.96;100986.94;4994403;28;20210;-83
2022/10/31 00:02:43;;;;;;;6.03;4.43;;;;;;;15.07;80.39;100973.63;4994409;28;20207;-82
2022/10/31 00:05:09;;;;;;;6.53;4.20;;;;;;;15.07;80.85;100972.78;4995784;28;20203;-80
2022/10/31 00:07:37;;;;;;;12.10;4.23;;;;;;;15.01;81.89;100930.91;4994534;28;20223;-80
2022/10/31 00:10:04;;;;;;;7.83;4.27;;;;;;;15.05;82.06;100922.00;4994771;28;20199;-82
2022/10/31 00:12:31;;;;;;;7.10;4.70;;;;;;;14.93;81.47;100927.63;4994897;28;20571;-82
2022/10/31 00:14:57;;;;;;;7.80;4.13;;;;;;;14.92;82.06;100918.88;4994970;28;20204;-82
2022/10/31 00:17:24;;;;;;;12.70;3.87;;;;;;;14.85;82.72;100893.69;4993839;28;20223;-80
2022/10/31 00:19:50;;;;;;;8.27;4.20;;;;;;;14.76;83.12;100894.78;4993941;28;20226;-81
2022/10/31 00:22:16;;;;;;;6.33;3.83;;;;;;;14.73;81.77;100907.16;4993823;28;20658;-79
2022/10/31 00:24:44;;;;;;;6.27;4.43;;;;;;;14.81;82.16;100916.56;4994254;28;20199;-81
2022/10/31 00:27:11;;;;;;;11.53;4.03;;;;;;;14.87;82.47;100907.66;4994177;28;20232;-82
2022/10/31 00:29:37;;;;;;;6.23;4.73;;;;;;;14.85;80.98;100941.84;4993405;28;20203;-80
2022/10/31 00:32:04;;;;;;;6.13;4.30;;;;;;;14.74;79.51;100999.09;4993992;28;20203;-80
2022/10/31 00:34:30;;;;;;;5.63;4.47;;;;;;;14.68;79.80;101010.63;4995042;28;20214;-81
2022/10/31 00:36:57;;;;;;;5.43;4.27;;;;;;;14.69;78.93;101030.75;4995133;28;20230;-81
2022/10/31 00:39:23;;;;;;;6.27;4.03;;;;;;;14.66;79.46;101040.50;4995225;28;20207;-81
2022/10/31 00:41:51;;;;;;;10.40;5.60;;;;;;;14.57;79.87;101036.34;4994449;28;20238;-81
2022/10/31 00:44:17;;;;;;;5.67;5.17;;;;;;;14.59;79.49;101034.53;4994854;28;20207;-81
2022/10/31 00:46:44;;;;;;;9.10;4.33;;;;;;;14.63;79.72;101038.81;4993887;28;20227;-81
2022/10/31 00:49:11;;;;;;;6.67;3.80;;;;;;;14.68;79.24;101047.41;4994601;28;20215;-81
2022/10/31 00:51:37;;;;;;;10.57;4.87;;;;;;;14.70;79.35;101048.25;4995092;28;20212;-81
2022/10/31 00:54:04;;;;;;;9.83;5.20;;;;;;;14.66;79.32;101057.13;4995018;28;20213;-80
2022/10/31 00:56:30;;;;;;;8.53;4.67;;;;;;;14.67;79.32;101055.38;4994766;28;20231;-81
2022/10/31 00:58:58;;;;;;;9.63;5.20;;;;;;;14.68;79.09;101044.78;4995501;28;20214;-82
2022/10/31 01:01:24;;;;;;;10.20;5.63;;;;;;;14.60;79.66;101057.28;4994297;28;20689;-79
2022/10/31 01:03:51;;;;;;;12.30;5.70;;;;;;;14.70;79.44;101045.63;4995115;28;20207;-81
2022/10/31 01:06:18;;;;;;;7.43;6.20;;;;;;;14.62;79.61;101055.47;4995191;28;20238;-81
2022/10/31 01:08:44;;;;;;;8.33;6.50;;;;;;;14.61;80.08;101042.41;4994399;28;20206;-81
2022/10/31 01:11:13;;;;;;;10.03;6.97;;;;;;;14.53;79.96;101034.69;4994835;28;20573;-81
2022/10/31 01:13:40;;;;;;;12.80;6.57;;;;;;;14.53;80.48;101020.66;4995094;28;20730;-81
2022/10/31 01:16:11;;;;;;;10.23;6.53;;;;;;;14.59;80.28;101016.16;4994807;28;20222;-81
2022/10/31 01:18:37;;;;;;;7.80;7.00;;;;;;;14.59;81.03;101013.53;4995023;28;20199;-82
2022/10/31 01:21:06;;;;;;;9.57;7.57;;;;;;;14.56;81.03;101007.44;4994384;28;20206;-81
2022/10/31 01:23:33;;;;;;;9.77;8.40;;;;;;;14.42;81.72;100986.78;4996360;28;20210;-80
2022/10/31 01:26:05;;;;;;;12.40;8.13;;;;;;;14.39;82.54;100979.88;4994800;28;20242;-81
2022/10/31 01:28:32;;;;;;;11.70;8.27;;;;;;;14.44;82.38;100963.97;4994485;28;20304;-81
2022/10/31 01:31:02;;;;;;;10.07;8.33;;;;;;;14.50;82.17;100979.56;4995173;28;20593;-80
2022/10/31 01:33:30;;;;;;;13.67;8.20;;;;;;;14.53;81.93;100982.13;4994746;28;20207;-81
2022/10/31 01:35:56;;;;;;;9.20;7.23;;;;;;;14.49;82.33;100976.09;4993946;28;20208;-80
2022/10/31 01:38:23;;;;;;;11.47;8.10;;;;;;;14.47;82.59;100962.13;4994554;28;20213;-81
2022/10/31 01:40:50;;;;;;;11.20;7.90;;;;;;;14.52;82.74;100959.38;4993572;28;20207;-81
2022/10/31 01:43:17;;;;;;;8.40;7.60;;;;;;;14.28;83.61;100950.38;4995270;28;20211;-81
2022/10/31 01:45:49;;;;;;;10.03;8.30;;;;;;;14.32;84.03;100933.66;4993704;28;20212;-81
2022/10/31 01:48:20;;;;;;;14.40;8.40;;;;;;;14.26;84.29;100916.28;4992158;28;20217;-81
2022/10/31 01:50:49;;;;;;;9.60;8.67;;;;;;;14.19;84.91;100906.88;4994278;28;20199;-81
2022/10/31 01:53:17;;;;;;;12.03;9.03;;;;;;;14.27;84.99;100896.13;4994358;28;20211;-78
2022/10/31 01:55:46;;;;;;;11.23;10.07;;;;;;;14.26;85.34;100895.28;4993562;28;20211;-81
2022/10/31 01:58:19;;;;;;;10.80;9.90;;;;;;;14.27;85.27;100891.75;4994681;28;20208;-80
2022/10/31 02:00:48;;;;;;;11.80;9.47;;;;;;;14.21;85.87;100877.91;4994591;28;20198;-82
2022/10/31 02:03:16;;;;;;;13.10;10.33;;;;;;;14.24;86.02;100877.84;4993126;28;20214;-82
2022/10/31 02:05:43;;;;;;;15.97;11.00;;;;;;;14.14;86.85;100861.47;4994097;28;20210;-82
2022/10/31 02:08:15;;;;;;;16.20;10.60;;;;;;;14.18;87.52;100839.50;4995467;28;20232;-81
2022/10/31 02:10:43;;;;;;;14.43;11.10;;;;;;;14.21;87.53;100823.66;4996824;28;20274;-80
2022/10/31 02:13:12;;;;;;;20.37;12.67;;;;;;;14.21;87.67;100826.28;4997644;28;20206;-80
2022/10/31 02:15:40;;;;;;;16.03;11.97;;;;;;;14.13;88.34;100822.13;4998364;28;20205;-80
2022/10/31 02:18:08;;;;;;;17.30;11.73;;;;;;;14.17;88.23;100823.78;4999726;28;20210;-81
2022/10/31 02:20:43;;;;;;;15.77;12.00;;;;;;;14.13;88.45;100819.50;4999386;28;20225;-81
2022/10/31 02:23:45;;;;;;;17.60;11.77;;;;;;;14.19;88.67;100819.34;4996889;28;20209;-81
2022/10/31 02:26:34;;;;;;;14.90;12.53;;;;;;;14.13;88.67;100830.88;4989842;28;20232;-81
2022/10/31 02:29:21;;;;;;;16.50;11.23;;;;;;;14.28;88.42;100835.69;4997036;28;20207;-81
2022/10/31 02:31:56;;;;;;;15.87;12.07;;;;;;;14.17;88.84;100836.91;4996524;28;20233;-81
2022/10/31 02:34:27;;;;;;;23.17;14.43;;;;;;;14.20;88.69;100836.81;4996880;28;20210;-79
2022/10/31 02:36:58;;;;;;;14.70;12.20;;;;;;;14.17;88.64;100845.66;4997538;28;20225;-80
2022/10/31 02:39:27;;;;;;;12.43;11.13;;;;;;;14.14;88.73;100837.84;4997287;28;20573;-81
2022/10/31 02:42:04;;;;;;;15.40;11.20;;;;;;;14.11;88.04;100853.66;4997671;28;20206;-81
2022/10/31 02:44:37;;;;;;;12.33;11.00;;;;;;;14.08;88.29;100844.13;4997201;28;20234;-80
2022/10/31 02:47:09;;;;;;;14.50;11.27;;;;;;;14.10;88.21;100852.81;4996804;28;20572;-80
2022/10/31 02:49:41;;;;;;;13.20;11.80;;;;;;;14.10;88.62;100865.94;4995420;28;20676;-80
2022/10/31 02:52:15;;;;;;;14.03;12.33;;;;;;;14.07;88.61;100847.66;4997179;28;20685;-80
2022/10/31 02:54:42;;;;;;;12.70;11.53;;;;;;;14.03;89.07;100853.91;4997096;28;20341;-80
2022/10/31 02:57:09;;;;;;;10.83;9.83;;;;;;;14.10;89.41;100838.84;4997420;28;20253;-80
2022/10/31 02:59:48;;;;;;;12.30;11.10;;;;;;;14.18;88.92;100841.25;4995490;28;20206;-81
2022/10/31 03:02:39;;;;;;;18.87;11.67;;;;;;;14.15;89.39;100836.94;4995931;28;20239;-81
2022/10/31 03:05:20;;;;;;;19.10;10.27;;;;;;;14.29;88.71;100850.56;4996462;28;20202;-81
2022/10/31 03:07:55;;;;;;;14.47;8.73;;;;;;;14.23;88.38;100871.75;4996460;28;20239;-82
2022/10/31 03:10:39;;;;;;;10.10;8.40;;;;;;;14.16;88.37;100871.94;5003337;28;20206;-81
2022/10/31 03:13:11;;;;;;;19.20;14.30;;;;;;;13.98;90.12;100847.91;4997574;28;20198;-81
2022/10/31 03:15:41;;;;;;;10.87;9.87;;;;;;;13.93;90.57;100825.31;4996618;28;20213;-81
2022/10/31 03:18:15;;;;;;;14.80;11.50;;;;;;;13.99;91.41;100801.50;4996008;28;20602;-80
2022/10/31 03:20:47;;;;;;;20.10;13.00;;;;;;;13.85;91.56;100800.09;4995598;28;20206;-80
2022/10/31 03:23:18;;;;;;;21.43;15.10;;;;;;;13.84;92.09;100787.06;4996480;28;20202;-80
2022/10/31 03:25:47;;;;;;;15.90;13.90;;;;;;;13.95;92.43;100782.34;4995430;28;20203;-82
2022/10/31 03:28:18;;;;;;;24.00;14.17;;;;;;;13.95;92.45;100779.72;4995002;28;20234;-82
2022/10/31 03:30:47;;;;;;;13.77;12.30;;;;;;;13.98;92.16;100791.94;4996252;28;20292;-81
2022/10/31 03:33:20;;;;;;;17.47;11.63;;;;;;;14.00;91.94;100796.22;4995162;28;20200;-79
2022/10/31 03:35:51;;;;;;;19.57;12.93;;;;;;;14.04;92.67;100805.75;4995083;28;20209;-81
2022/10/31 03:38:20;;;;;;;15.17;12.33;;;;;;;14.06;92.42;100806.56;4996897;28;20202;-81
2022/10/31 03:40:50;;;;;;;18.03;13.87;;;;;;;14.04;92.56;100810.13;4995478;28;20207;-81
2022/10/31 03:43:22;;;;;;;20.30;14.67;;;;;;;13.99;92.94;100805.00;4996064;28;20214;-81
2022/10/31 03:45:49;;;;;;;21.03;15.80;;;;;;;13.96;93.18;100791.13;4996653;28;20568;-80
2022/10/31 03:48:21;;;;;;;22.53;14.03;;;;;;;13.99;92.90;100804.13;4994699;28;20223;-80
2022/10/31 03:50:54;;;;;;;19.33;15.00;;;;;;;13.90;93.66;100798.25;4995616;28;20203;-80
2022/10/31 03:53:26;;;;;;;22.47;15.17;;;;;;;13.84;94.28;100797.56;4995067;28;20790;-81
2022/10/31 03:55:59;;;;;;;24.40;14.77;;;;;;;13.86;94.82;100783.47;4996694;28;20202;-81
2022/10/31 03:58:32;;;;;;;22.83;15.63;;;;;;;13.87;94.17;100800.97;4995918;28;20209;-81
2022/10/31 04:01:01;;;;;;;21.60;13.67;;;;;;;13.94;94.33;100800.78;4994938;28;20239;-81
2022/10/31 04:03:33;;;;;;;19.83;12.90;;;;;;;13.96;93.76;100812.97;4995615;28;20209;-78
2022/10/31 04:06:03;;;;;;;18.20;14.50;;;;;;;13.95;93.51;100823.50;4994490;28;20237;-81
2022/10/31 04:08:34;;;;;;;20.50;15.60;;;;;;;13.93;nan;100831.41;4995835;28;20227;-81
2022/10/31 04:11:03;;;;;;;29.77;14.90;;;;;;;13.93;94.20;100830.56;4995055;28;20695;-80
2022/10/31 04:13:35;;;;;;;26.73;17.10;;;;;;;13.82;95.30;100818.56;4996057;28;20213;-81
2022/10/31 04:16:01;;;;;;;17.83;15.93;;;;;;;13.79;95.76;100809.91;4995864;28;20242;-80
2022/10/31 04:18:29;;;;;;;19.63;14.93;;;;;;;13.84;95.17;100813.28;4996260;28;20205;-81
2022/10/31 04:21:03;;;;;;;23.80;16.77;;;;;;;13.82;95.77;100810.72;4994835;28;20218;-81
2022/10/31 04:23:29;;;;;;;25.23;16.60;;;;;;;13.83;95.23;100816.81;4994879;28;20700;-81
2022/10/31 04:25:56;;;;;;;16.77;13.00;;;;;;;13.89;94.89;100833.28;4993836;28;20215;-81
2022/10/31 04:28:22;;;;;;;20.97;15.20;;;;;;;13.87;94.93;100836.81;4993864;28;20226;-79
2022/10/31 04:30:49;;;;;;;16.40;14.13;;;;;;;13.93;95.63;100836.66;4993312;28;20207;-81
2022/10/31 04:33:15;;;;;;;13.43;12.03;;;;;;;14.01;94.12;100849.56;4994029;28;20202;-81
2022/10/31 04:35:43;;;;;;;25.37;13.97;;;;;;;14.04;93.02;100878.38;4994701;28;20207;-79
2022/10/31 04:38:10;;;;;;;18.90;13.07;;;;;;;14.06;92.69;100893.19;4995508;28;20202;-79
2022/10/31 04:40:36;;;;;;;15.87;14.17;;;;;;;14.04;92.15;100915.13;4993239;28;20203;-81
2022/10/31 04:43:03;;;;;;;26.83;15.23;;;;;;;14.03;91.87;100918.63;4994528;28;20304;-82
2022/10/31 04:45:29;;;;;;;16.00;13.37;;;;;;;14.04;92.01;100920.38;4995539;28;20211;-81
2022/10/31 04:47:55;;;;;;;18.33;14.50;;;;;;;13.98;92.39;100910.91;4994976;28;20230;-81
2022/10/31 04:50:22;;;;;;;20.57;13.50;;;;;;;13.97;92.51;100909.16;4992862;28;20219;-81
2022/10/31 04:52:50;;;;;;;19.70;13.67;;;;;;;13.97;92.81;100910.94;4994129;28;20209;-79
2022/10/31 04:55:16;;;;;;;16.40;14.63;;;;;;;13.99;93.06;100888.13;4992975;28;20207;-81
2022/10/31 04:57:43;;;;;;;21.70;14.50;;;;;;;14.02;92.74;100898.56;4993944;28;20233;-81
2022/10/31 05:00:12;;;;;;;23.03;14.70;;;;;;;13.97;93.02;100900.44;4993316;28;20203;-80
2022/10/31 05:02:44;;;;;;;19.50;15.23;;;;;;;13.94;92.65;100904.00;4994669;28;20216;-79
2022/10/31 05:05:10;;;;;;;16.00;14.40;;;;;;;13.95;92.54;100904.84;4994068;28;20202;-81
2022/10/31 05:07:39;;;;;;;20.93;14.97;;;;;;;13.95;92.52;100905.72;4993937;28;20227;-80
2022/10/31 05:10:09;;;;;;;15.63;14.10;;;;;;;13.97;92.27;100903.06;4993640;28;20211;-81
2022/10/31 05:12:36;;;;;;;23.07;13.93;;;;;;;13.92;93.38;100889.22;4992015;28;20744;-81
2022/10/31 05:15:02;;;;;;;23.13;15.67;;;;;;;13.90;93.15;100876.97;4993762;28;20203;-80
2022/10/31 05:17:29;;;;;;;17.07;13.93;;;;;;;13.84;93.81;100864.00;4993792;28;20222;-81
2022/10/31 05:19:55;;;;;;;22.27;15.30;;;;;;;13.68;95.46;100834.69;4993446;28;20210;-81
2022/10/31 05:22:21;;;;;;;21.07;14.80;;;;;;;13.64;96.21;100811.19;4992361;28;20594;-81
2022/10/31 05:24:48;;;;;;;24.50;15.10;;;;;;;13.55;96.89;100793.91;4993980;28;20200;-81
2022/10/31 05:27:16;;;;;;;15.97;14.27;;;;;;;13.54;97.48;100780.81;4993711;28;20225;-81
2022/10/31 05:29:42;;;;;;;19.77;13.83;;;;;;;13.53;97.07;100797.47;4993808;28;20214;-81
2022/10/31 05:32:08;;;;;;;18.73;14.37;;;;;;;13.55;96.97;100804.41;4991869;28;20216;-80
2022/10/31 05:34:35;;;;;;;20.77;13.47;;;;;;;13.62;96.04;100813.00;4993528;28;20206;-80
2022/10/31 05:37:01;;;;;;;18.00;12.03;;;;;;;13.64;95.68;100829.56;4993519;28;20236;-81
2022/10/31 05:39:28;;;;;;;15.97;13.73;;;;;;;13.64;95.14;100843.53;4992206;28;20210;-80
2022/10/31 05:41:54;;;;;;;16.03;14.03;;;;;;;13.59;95.33;100845.38;4991832;28;20210;-80
2022/10/31 05:44:22;;;;;;;16.63;13.37;;;;;;;13.61;95.50;100842.75;4996043;28;20229;-81
2022/10/31 05:46:48;;;;;;;21.60;14.27;;;;;;;13.58;95.82;100837.59;4998238;28;20238;-81
2022/10/31 05:49:15;;;;;;;20.73;15.17;;;;;;;13.51;96.46;100829.84;4996876;28;20222;-81
2022/10/31 05:51:41;;;;;;;15.57;13.03;;;;;;;13.60;96.21;100833.16;4996592;28;20669;-81
2022/10/31 05:54:08;;;;;;;21.03;14.13;;;;;;;13.61;95.32;100848.84;4995909;28;20208;-82
2022/10/31 05:56:34;;;;;;;23.13;13.20;;;;;;;13.61;95.34;100869.81;4997952;28;20230;-82
2022/10/31 05:59:01;;;;;;;18.73;13.77;;;;;;;13.61;94.52;100874.22;4995114;28;20222;-81
2022/10/31 06:01:28;;;;;;;17.77;13.93;;;;;;;13.62;94.37;100876.81;4996548;28;20213;-81
2022/10/31 06:03:55;;;;;;;16.20;14.53;;;;;;;13.60;94.45;100883.00;4997063;28;20214;-80
2022/10/31 06:06:21;;;;;;;21.40;15.30;;;;;;;13.54;95.04;100878.75;4997872;28;20234;-81
2022/10/31 06:08:48;;;;;;;15.50;13.83;;;;;;;13.56;95.02;100878.69;4996286;28;20245;-81
2022/10/31 06:11:14;;;;;;;25.27;15.10;;;;;;;13.58;94.68;100883.03;4994921;28;20203;-81
2022/10/31 06:13:40;;;;;;;22.77;14.77;;;;;;;13.58;94.59;100890.91;4998298;28;20640;-81
2022/10/31 06:16:07;;;;;;;21.03;15.47;;;;;;;13.60;94.24;100901.38;4997678;28;20230;-83
2022/10/31 06:18:35;;;;;;;21.30;16.10;;;;;;;13.59;94.63;100904.88;4997327;28;20221;-81
2022/10/31 06:21:02;;;;;;;21.00;15.20;;;;;;;13.56;95.04;100900.56;4996277;28;20204;-81
2022/10/31 06:23:28;;;;;;;19.37;14.80;;;;;;;13.54;94.81;100899.75;4997086;28;20210;-82
2022/10/31 06:25:55;;;;;;;22.07;14.57;;;;;;;13.59;94.67;100907.50;4996228;28;20207;-81
2022/10/31 06:28:21;;;;;;;20.33;15.37;;;;;;;13.62;94.63;100904.81;4995828;28;20249;-81
2022/10/31 06:30:48;;;;;;;20.30;15.33;;;;;;;13.67;94.49;100908.16;4988552;28;20203;-82
2022/10/31 06:33:15;;;;;;;16.10;14.13;;;;;;;13.69;94.10;100922.97;4985850;28;20211;-81
2022/10/31 06:35:47;;;;;;;16.07;13.83;;;;;;;13.67;93.23;100942.28;4985932;28;20199;-82
2022/10/31 06:38:14;;;;;;;17.57;14.47;;;;;;;13.67;92.67;100955.38;4989749;28;20210;-80
2022/10/31 06:40:40;;;;;;;19.77;14.93;;;;;;;13.64;92.22;100965.97;4985614;28;20199;-81
2022/10/31 06:43:06;;;;;;;18.23;14.23;;;;;;;13.59;91.98;100983.56;4986986;28;20566;-82
2022/10/31 06:45:33;;;;;;;17.53;14.43;;;;;;;13.58;92.02;100989.72;4987192;28;20198;-81
2022/10/31 06:47:59;;;;;;;21.47;13.83;;;;;;;13.55;91.65;100992.41;4987671;28;20230;-82
2022/10/31 06:50:26;;;;;;;16.13;14.27;;;;;;;13.47;91.59;100995.19;4988038;28;20207;-80
2022/10/31 06:52:55;;;;;;;25.13;15.17;;;;;;;13.43;91.80;100994.38;4987035;28;20206;-80
2022/10/31 06:55:22;;;;;;;15.77;14.07;;;;;;;13.45;92.02;100987.34;4986266;28;20592;-80
2022/10/31 06:57:52;;;;;;;16.80;13.17;;;;;;;13.44;92.31;100976.91;4985906;28;20230;-80
2022/10/31 07:00:19;;;;;;;15.33;13.70;;;;;;;13.47;92.50;100968.97;4986950;28;20201;-80
2022/10/31 07:02:53;;;;;;;16.40;14.00;;;;;;;13.46;93.07;100959.38;4984692;28;20556;-80
2022/10/31 07:05:20;;;;;;;18.07;15.00;;;;;;;13.51;93.13;100950.50;4985481;28;20208;-81
2022/10/31 07:07:46;;;;;;;17.27;15.27;;;;;;;13.60;93.19;100956.44;4987028;28;20228;-81
2022/10/31 07:10:14;;;;;;;22.43;16.70;;;;;;;13.64;93.96;100951.09;4986432;28;20220;-81
2022/10/31 07:12:41;;;;;;;24.87;16.13;;;;;;;13.72;93.92;100945.66;4984857;28;20207;-81
2022/10/31 07:15:08;;;;;;;26.67;18.03;;;;;;;13.76;94.32;100938.59;4985475;28;20208;-82
2022/10/31 07:17:34;;;;;;;25.00;16.50;;;;;;;13.82;94.75;100930.56;4987627;28;20249;-81
2022/10/31 07:20:01;;;;;;;19.80;15.40;;;;;;;13.84;94.11;100942.72;4983375;28;20203;-82
2022/10/31 07:22:33;;;;;;;17.37;15.53;;;;;;;13.81;93.83;100949.81;4985264;28;20192;-82
2022/10/31 07:24:59;;;;;;;22.30;16.73;;;;;;;13.83;93.69;100966.38;4985937;28;20566;-81
2022/10/31 07:27:27;;;;;;;19.97;17.20;;;;;;;13.83;93.62;100969.84;4985592;28;20615;-81
2022/10/31 07:29:54;;;;;;;22.00;19.50;;;;;;;13.82;93.77;100970.78;4984441;28;20225;-82
2022/10/31 07:32:20;;;;;;;23.87;19.37;;;;;;;13.88;93.15;100977.66;4986683;28;20666;-81
2022/10/31 07:34:46;;;;;;;19.63;17.60;;;;;;;13.91;92.21;100993.28;4984521;28;20198;-81
2022/10/31 07:37:13;;;;;;;25.97;17.73;;;;;;;13.82;92.56;100996.16;4983994;28;20221;-81
2022/10/31 07:39:39;;;;;;;18.97;16.17;;;;;;;13.79;92.68;100990.97;4986702;28;20202;-80
2022/10/31 07:42:06;;;;;;;20.43;16.60;;;;;;;13.81;92.55;100999.66;4983247;28;20641;-80
2022/10/31 07:44:33;;;;;;;27.67;18.43;;;;;;;13.77;93.24;100984.91;4986357;28;20202;-79
2022/10/31 07:47:00;;;;;;;17.07;15.40;;;;;;;13.74;92.89;100982.38;4983695;28;20724;-80
2022/10/31 07:49:26;;;;;;;18.07;16.23;;;;;;;13.68;93.22;100985.97;4984546;28;20212;-79
2022/10/31 07:51:53;;;;;;;16.20;14.60;;;;;;;13.69;92.88;100980.69;4981873;28;20279;-79
2022/10/31 07:54:19;;;;;;;17.97;15.73;;;;;;;13.66;93.36;100988.63;4985877;28;20533;-80
2022/10/31 07:56:46;;;;;;;16.93;15.17;;;;;;;13.63;93.62;100969.47;4982636;28;20218;-80
2022/10/31 07:59:13;;;;;;;17.60;14.83;;;;;;;13.65;93.57;100971.16;4982430;28;20668;-80
2022/10/31 08:01:41;;;;;;;24.00;16.03;;;;;;;13.67;94.22;100974.59;4984599;28;20664;-80
2022/10/31 08:04:08;;;;;;;29.67;19.93;;;;;;;13.46;95.65;100948.91;4982733;28;20214;-79
2022/10/31 08:06:35;;;;;;;25.30;19.30;;;;;;;13.23;96.97;100924.00;4981217;28;20225;-78
2022/10/31 08:09:01;;;;;;;18.07;16.17;;;;;;;12.35;98.80;100903.09;4984710;28;20214;-80
2022/10/31 08:11:27;;;;;;;26.53;18.50;;;;;;;11.81;100.00;100854.31;4982112;28;20205;-80
2022/10/31 08:13:54;;;;;;;27.10;18.50;;;;;;;11.95;100.00;100822.72;4982595;28;20219;-80
2022/10/31 08:16:20;;;;;;;28.87;18.43;;;;;;;12.09;100.00;100818.06;4985465;28;20218;-80
2022/10/31 08:18:48;;;;;;;21.23;18.20;;;;;;;12.12;100.00;100825.88;4983084;28;20203;-80
2022/10/31 08:21:14;;;;;;;27.67;18.10;;;;;;;12.20;100.00;100826.59;4983211;28;20220;-80
2022/10/31 08:23:41;;;;;;;20.70;17.33;;;;;;;12.44;100.00;100834.84;4983870;28;20672;-79
2022/10/31 08:26:07;;;;;;;30.13;16.83;;;;;;;12.57;100.00;100852.06;4984758;28;20215;-80
2022/10/31 08:28:34;;;;;;;17.60;15.63;;;;;;;12.73;99.39;100870.06;4983826;28;20225;-79
2022/10/31 08:31:00;;;;;;;27.53;16.20;;;;;;;12.86;98.42;100884.63;4986084;28;20199;-81
2022/10/31 08:33:27;;;;;;;18.93;16.30;;;;;;;13.00;98.06;100897.44;4985888;28;20202;-79
2022/10/31 08:35:54;;;;;;;22.53;16.63;;;;;;;13.12;97.39;100912.88;4990903;28;20201;-80
2022/10/31 08:38:21;;;;;;;19.30;16.33;;;;;;;13.19;96.54;100927.59;4992738;28;20197;-81
2022/10/31 08:40:49;;;;;;;16.87;13.67;;;;;;;13.28;95.98;100948.38;4994590;28;20194;-80
2022/10/31 08:43:17;;;;;;;25.63;16.23;;;;;;;13.38;94.66;100962.19;5000755;28;20238;-81
2022/10/31 08:45:45;;;;;;;20.33;15.53;;;;;;;13.45;94.92;100966.38;4992672;28;20272;-80
2022/10/31 08:48:13;;;;;;;19.23;15.27;;;;;;;13.54;94.95;100970.56;4990897;28;20202;-80
2022/10/31 08:50:40;;;;;;;17.67;15.77;;;;;;;13.64;94.73;100973.84;4992367;28;20210;-82
2022/10/31 08:53:11;;;;;;;15.57;14.03;;;;;;;13.74;94.93;100964.84;4993701;28;20201;-79
2022/10/31 08:55:39;;;;;;;17.57;15.70;;;;;;;13.85;94.70;100969.84;4993857;28;20214;-79
2022/10/31 08:58:07;;;;;;;20.60;17.37;;;;;;;13.94;94.64;100966.13;4982629;28;20474;-80
2022/10/31 09:00:34;;;;;;;20.57;17.13;;;;;;;14.00;94.45;100969.47;4985216;28;20194;-80
2022/10/31 09:03:03;;;;;;;22.00;16.73;;;;;;;14.07;95.17;100962.28;4983889;28;20201;-81
2022/10/31 09:05:29;;;;;;;20.63;15.97;;;;;;;14.25;96.90;100932.06;4982562;28;20192;-79
2022/10/31 09:07:57;;;;;;;20.10;16.17;;;;;;;14.41;98.23;100904.53;4981444;28;20222;-82
2022/10/31 09:10:26;;;;;;;19.90;16.20;;;;;;;14.62;98.41;100886.47;4978633;28;20574;-80
2022/10/31 09:12:57;;;;;;;16.90;15.10;;;;;;;14.65;97.02;100903.00;4975032;28;20208;-80
2022/10/31 09:15:23;;;;;;;20.87;15.83;;;;;;;14.88;98.46;100883.06;4976344;28;20211;-78
2022/10/31 09:17:50;;;;;;;34.43;17.03;;;;;;;15.01;98.15;100884.44;4978003;28;20231;-80
2022/10/31 09:20:17;;;;;;;21.60;14.80;;;;;;;15.12;98.22;100881.47;4988128;28;20203;-79
2022/10/31 09:22:43;;;;;;;18.93;15.20;;;;;;;15.15;97.04;100904.19;4996223;28;20552;-79
2022/10/31 09:25:10;;;;;;;19.73;15.57;;;;;;;15.17;95.98;100926.91;4997257;28;20269;-78
2022/10/31 09:27:38;;;;;;;18.73;15.40;;;;;;;15.11;94.88;100956.00;5004732;28;20230;-79
2022/10/31 09:30:05;;;;;;;20.23;15.77;;;;;;;15.12;95.04;100959.50;5004415;28;20218;-79
2022/10/31 09:32:32;;;;;;;19.77;16.30;;;;;;;15.17;94.92;100961.09;5000852;28;20205;-79
2022/10/31 09:34:58;;;;;;;23.10;14.37;;;;;;;15.26;95.17;100965.19;5003660;28;20210;-78
2022/10/31 09:37:24;;;;;;;17.07;15.47;;;;;;;15.36;94.45;100974.56;5003992;28;20230;-78
2022/10/31 09:39:51;;;;;;;16.43;14.23;;;;;;;15.45;92.67;101011.09;5005264;28;20210;-79
2022/10/31 09:42:30;;;;;;;15.50;13.93;;;;;;;15.57;92.97;101019.53;5014873;28;20215;-81
2022/10/31 09:45:07;;;;;;;18.40;14.20;;;;;;;15.65;93.40;101005.22;5015129;28;20207;-80
2022/10/31 09:47:44;;;;;;;18.70;13.67;;;;;;;15.82;93.82;100990.72;5014168;28;20233;-79
2022/10/31 09:50:18;;;;;;;14.73;12.73;;;;;;;15.94;94.06;100977.16;5014721;28;20703;-79
2022/10/31 09:52:52;;;;;;;19.03;12.93;;;;;;;16.05;93.25;100982.94;5015800;28;20202;-79
2022/10/31 09:55:26;;;;;;;17.20;13.30;;;;;;;16.13;90.58;101045.88;5017395;28;20581;-80
2022/10/31 09:57:53;;;;;;;23.53;14.80;;;;;;;16.21;90.03;101080.75;5014934;28;20238;-80
2022/10/31 10:00:23;;;;;;;18.30;15.03;;;;;;;16.19;91.19;101065.88;5015490;28;20673;-81
2022/10/31 10:02:54;;;;;;;20.13;14.30;;;;;;;16.30;91.71;101037.44;5015034;28;20560;-78
2022/10/31 10:05:25;;;;;;;24.53;14.73;;;;;;;16.36;89.26;101076.75;5015148;28;20214;-78
2022/10/31 10:08:00;;;;;;;15.60;14.00;;;;;;;16.40;86.45;101152.16;5013421;28;20222;-80
2022/10/31 10:10:40;;;;;;;17.60;14.47;;;;;;;16.45;85.54;101186.25;5013738;28;20226;-81
2022/10/31 10:13:23;;;;;;;17.87;13.83;;;;;;;16.47;85.18;101210.78;5015060;28;20211;-82
2022/10/31 10:16:04;;;;;;;20.80;14.37;;;;;;;16.45;85.22;101220.50;5012117;28;20213;-81
2022/10/31 10:18:40;;;;;;;17.40;12.47;;;;;;;16.47;85.73;101208.16;4293905;28;10000852;-80
2022/10/31 10:21:21;;;;;;;20.37;14.73;;;;;;;16.53;85.24;101213.25;4971950;28;20222;-80
2022/10/31 10:23:58;;;;;;;19.30;14.70;;;;;;;16.55;85.41;101206.16;4973868;28;20213;-80
2022/10/31 10:26:31;;;;;;;17.47;14.97;;;;;;;16.58;85.44;101198.13;4972951;28;20291;-80
2022/10/31 10:29:02;;;;;;;21.13;13.20;;;;;;;16.55;86.29;101182.44;4971202;28;20235;-79
2022/10/31 10:31:35;;;;;;;23.77;15.17;;;;;;;16.63;85.44;101183.06;4972042;28;20212;-80
2022/10/31 10:34:08;;;;;;;23.10;14.27;;;;;;;16.65;85.82;101175.97;4973333;28;20210;-81
2022/10/31 10:36:41;;;;;;;16.87;13.17;;;;;;;16.74;85.30;101166.88;4972785;28;20229;-80
2022/10/31 10:39:15;;;;;;;17.57;13.73;;;;;;;16.79;86.00;101156.19;4970884;28;20208;-81
2022/10/31 10:41:45;;;;;;;17.10;13.23;;;;;;;16.73;87.16;101122.97;4971984;28;20687;-80
2022/10/31 10:44:11;;;;;;;19.90;14.53;;;;;;;16.77;87.83;101076.25;4972907;28;20232;-81
2022/10/31 10:49:37;;;;;;;19.03;14.07;;;;;;;16.86;88.10;101063.66;4973673;28;20312;-80
2022/10/31 10:52:13;;;;;;;16.03;13.63;;;;;;;16.79;88.36;101054.22;4973256;28;20213;-80
2022/10/31 10:54:47;;;;;;;24.53;13.40;;;;;;;16.94;87.16;101065.16;4972944;28;20218;-81
2022/10/31 10:57:23;;;;;;;15.43;12.80;;;;;;;17.01;85.99;101095.69;4969822;28;20253;-79
2022/10/31 10:59:51;;;;;;;17.33;11.90;;;;;;;17.09;85.31;101111.25;4972005;28;20210;-77
2022/10/31 11:02:22;;;;;;;15.20;12.50;;;;;;;17.10;85.06;101128.78;4972876;28;20208;-81
2022/10/31 11:04:52;;;;;;;17.37;12.40;;;;;;;17.09;86.56;101092.78;4972357;28;20220;-81
2022/10/31 11:07:18;;;;;;;13.50;11.57;;;;;;;17.18;86.31;101085.38;4970459;28;20754;-81
2022/10/31 11:09:46;;;;;;;18.10;11.73;;;;;;;17.30;85.35;101096.41;4970708;28;20233;-81
2022/10/31 11:12:21;;;;;;;17.37;11.50;;;;;;;17.34;84.08;101130.53;4973317;28;20760;-79
2022/10/31 11:14:51;;;;;;;20.90;11.20;;;;;;;17.41;83.44;101158.44;4973925;28;20227;-81
2022/10/31 11:17:26;;;;;;;16.93;11.00;;;;;;;17.44;83.90;101149.56;4981331;28;20224;-81
2022/10/31 11:20:01;;;;;;;16.27;10.97;;;;;;;17.56;82.89;101167.59;4998308;28;20205;-78
2022/10/31 11:22:27;;;;;;;14.10;10.37;;;;;;;17.64;82.62;101162.91;4988893;28;20227;-81